CYYB

North Bay Airport

North Bay, , Canada
METAR CYYB 161400Z 34011KT 30SM FEW050 M20/M22 A2988 RMK SC1 SC TR SLP152
Observed Flight Rules
Dec-16 @ 14:00 UTC (53 minutes ago) Visual Flight Rules
Wind Visibility Clouds
340° at 11 knots 30 miles
  • Few at 5,000' AGL
Temperatures Readings
Current -20°C / -4°F
Dewpoint -22°C / -8°F
Humidity 84%
Altimeter 29.88" Hg
Pressure 1015.2 hPa
Elevation 371
METAR CYYB 161400Z 34011KT 30SM FEW050 M20/M22 A2988 RMK SC1 SC TR SLP152
Observed Flight Rules
Dec-16 @ 14:00 UTC
(53 minutes ago)
VFR
Wind Visibility
340° at 11 knots 30 miles
Clouds
  • Few at 5,000' AGL
Temperature Dewpoint
-20°C / -4°F -22°C / -8°F
Humidity Altimeter Pressure
84% 29.88" Hg 1015.2 hPa